sensor_id;sensor_type;location;lat;lon;timestamp;pressure;altitude;pressure_sealevel;temperature;humidity
66887;BME280;67239;51.680;5.976;2023-07-02T00:00:06;100550.16;;;17.67;79.99
66887;BME280;67239;51.680;5.976;2023-07-02T00:02:36;100562.63;;;17.66;79.92
66887;BME280;67239;51.680;5.976;2023-07-02T00:05:05;100553.03;;;17.64;79.98
66887;BME280;67239;51.680;5.976;2023-07-02T00:07:33;100552.25;;;17.62;80.12
66887;BME280;67239;51.680;5.976;2023-07-02T00:10:04;100546.94;;;17.62;80.10
66887;BME280;67239;51.680;5.976;2023-07-02T00:12:32;100533.59;;;17.62;80.33
66887;BME280;67239;51.680;5.976;2023-07-02T00:15:00;100525.59;;;17.62;80.30
66887;BME280;67239;51.680;5.976;2023-07-02T00:17:28;100509.59;;;17.62;79.98
66887;BME280;67239;51.680;5.976;2023-07-02T00:19:55;100507.06;;;17.60;79.37
66887;BME280;67239;51.680;5.976;2023-07-02T00:22:22;100505.53;;;17.56;79.48
66887;BME280;67239;51.680;5.976;2023-07-02T00:24:49;100508.59;;;17.50;79.64
66887;BME280;67239;51.680;5.976;2023-07-02T00:27:18;100500.06;;;17.45;79.62
66887;BME280;67239;51.680;5.976;2023-07-02T00:29:45;100503.00;;;17.40;79.52
66887;BME280;67239;51.680;5.976;2023-07-02T00:32:12;100501.41;;;17.37;79.34
66887;BME280;67239;51.680;5.976;2023-07-02T00:34:39;100482.97;;;17.34;79.71
66887;BME280;67239;51.680;5.976;2023-07-02T00:37:06;100477.91;;;17.30;80.09
66887;BME280;67239;51.680;5.976;2023-07-02T00:39:33;100479.09;;;17.26;79.83
66887;BME280;67239;51.680;5.976;2023-07-02T00:42:02;100496.84;;;17.25;79.89
66887;BME280;67239;51.680;5.976;2023-07-02T00:44:31;100519.16;;;17.24;80.15
66887;BME280;67239;51.680;5.976;2023-07-02T00:46:58;100529.69;;;17.26;80.26
66887;BME280;67239;51.680;5.976;2023-07-02T00:49:26;100534.91;;;17.27;80.27
66887;BME280;67239;51.680;5.976;2023-07-02T00:51:54;100532.81;;;17.32;80.28
66887;BME280;67239;51.680;5.976;2023-07-02T00:54:22;100538.22;;;17.31;80.47
66887;BME280;67239;51.680;5.976;2023-07-02T00:56:49;100546.22;;;17.31;80.27
66887;BME280;67239;51.680;5.976;2023-07-02T00:59:17;100551.38;;;17.34;80.02
66887;BME280;67239;51.680;5.976;2023-07-02T01:01:44;100543.38;;;17.34;79.94
66887;BME280;67239;51.680;5.976;2023-07-02T01:04:19;100544.97;;;17.36;79.44
66887;BME280;67239;51.680;5.976;2023-07-02T01:06:46;100544.13;;;17.36;79.34
66887;BME280;67239;51.680;5.976;2023-07-02T01:09:13;100540.72;;;17.34;79.87
66887;BME280;67239;51.680;5.976;2023-07-02T01:11:46;100548.41;;;17.38;79.17
66887;BME280;67239;51.680;5.976;2023-07-02T01:14:25;100549.34;;;17.37;78.97
66887;BME280;67239;51.680;5.976;2023-07-02T01:16:56;100552.13;;;17.36;79.34
66887;BME280;67239;51.680;5.976;2023-07-02T01:19:51;100545.09;;;17.35;79.28
66887;BME280;67239;51.680;5.976;2023-07-02T01:22:21;100545.28;;;17.32;79.21
66887;BME280;67239;51.680;5.976;2023-07-02T01:24:51;100556.16;;;17.29;79.33
66887;BME280;67239;51.680;5.976;2023-07-02T01:27:19;100564.97;;;17.29;79.54
66887;BME280;67239;51.680;5.976;2023-07-02T01:29:51;100561.47;;;17.29;79.06
66887;BME280;67239;51.680;5.976;2023-07-02T01:32:19;100563.38;;;17.27;79.27
66887;BME280;67239;51.680;5.976;2023-07-02T01:34:50;100574.88;;;17.27;79.15
66887;BME280;67239;51.680;5.976;2023-07-02T01:37:20;100572.41;;;17.24;79.43
66887;BME280;67239;51.680;5.976;2023-07-02T01:39:47;100569.94;;;17.21;79.52
66887;BME280;67239;51.680;5.976;2023-07-02T01:42:16;100589.44;;;17.21;79.37
66887;BME280;67239;51.680;5.976;2023-07-02T01:44:47;100592.84;;;17.23;78.10
66887;BME280;67239;51.680;5.976;2023-07-02T01:47:16;100589.81;;;17.15;74.85
66887;BME280;67239;51.680;5.976;2023-07-02T01:49:43;100590.28;;;17.07;72.27
66887;BME280;67239;51.680;5.976;2023-07-02T01:52:10;100590.00;;;16.98;71.99
66887;BME280;67239;51.680;5.976;2023-07-02T01:54:38;100591.28;;;16.90;72.21
66887;BME280;67239;51.680;5.976;2023-07-02T01:57:05;100596.22;;;16.82;72.16
66887;BME280;67239;51.680;5.976;2023-07-02T01:59:32;100596.59;;;16.76;71.23
66887;BME280;67239;51.680;5.976;2023-07-02T02:01:59;100597.91;;;16.69;71.51
66887;BME280;67239;51.680;5.976;2023-07-02T02:04:26;100592.84;;;16.64;71.52
66887;BME280;67239;51.680;5.976;2023-07-02T02:06:54;100596.84;;;16.57;72.21
66887;BME280;67239;51.680;5.976;2023-07-02T02:09:21;100600.66;;;16.53;72.66
66887;BME280;67239;51.680;5.976;2023-07-02T02:11:49;100601.09;;;16.45;72.96
66887;BME280;67239;51.680;5.976;2023-07-02T02:14:19;100593.66;;;16.36;72.92
66887;BME280;67239;51.680;5.976;2023-07-02T02:16:46;100590.50;;;16.29;73.31
66887;BME280;67239;51.680;5.976;2023-07-02T02:19:13;100587.41;;;16.21;73.47
66887;BME280;67239;51.680;5.976;2023-07-02T02:21:42;100588.69;;;16.13;73.60
66887;BME280;67239;51.680;5.976;2023-07-02T02:24:10;100597.22;;;16.04;74.21
66887;BME280;67239;51.680;5.976;2023-07-02T02:26:37;100603.00;;;15.96;74.78
66887;BME280;67239;51.680;5.976;2023-07-02T02:29:05;100597.22;;;15.88;74.92
66887;BME280;67239;51.680;5.976;2023-07-02T02:31:32;100595.06;;;15.79;75.39
66887;BME280;67239;51.680;5.976;2023-07-02T02:34:01;100599.00;;;15.72;75.51
66887;BME280;67239;51.680;5.976;2023-07-02T02:36:28;100602.09;;;15.64;75.81
66887;BME280;67239;51.680;5.976;2023-07-02T02:38:55;100599.78;;;15.58;75.83
66887;BME280;67239;51.680;5.976;2023-07-02T02:41:25;100601.75;;;15.54;76.47
66887;BME280;67239;51.680;5.976;2023-07-02T02:43:53;100601.91;;;15.51;76.61
66887;BME280;67239;51.680;5.976;2023-07-02T02:46:21;100601.06;;;15.50;77.40
66887;BME280;67239;51.680;5.976;2023-07-02T02:48:50;100598.31;;;15.52;77.40
66887;BME280;67239;51.680;5.976;2023-07-02T02:51:18;100594.72;;;15.53;77.88
66887;BME280;67239;51.680;5.976;2023-07-02T02:53:45;100597.22;;;15.56;77.95
66887;BME280;67239;51.680;5.976;2023-07-02T02:56:13;100604.94;;;15.61;78.17
66887;BME280;67239;51.680;5.976;2023-07-02T02:58:40;100602.28;;;15.61;78.59
66887;BME280;67239;51.680;5.976;2023-07-02T03:01:08;100603.91;;;15.63;78.40
66887;BME280;67239;51.680;5.976;2023-07-02T03:03:39;100614.53;;;15.63;78.51
66887;BME280;67239;51.680;5.976;2023-07-02T03:06:13;100613.59;;;15.64;78.84
66887;BME280;67239;51.680;5.976;2023-07-02T03:08:43;100616.06;;;15.67;79.35
66887;BME280;67239;51.680;5.976;2023-07-02T03:11:10;100619.59;;;15.68;79.22
66887;BME280;67239;51.680;5.976;2023-07-02T03:13:37;100615.13;;;15.68;79.55
66887;BME280;67239;51.680;5.976;2023-07-02T03:16:05;100616.75;;;15.71;79.77
66887;BME280;67239;51.680;5.976;2023-07-02T03:18:32;100621.03;;;15.74;80.20
66887;BME280;67239;51.680;5.976;2023-07-02T03:20:59;100617.44;;;15.75;80.95
66887;BME280;67239;51.680;5.976;2023-07-02T03:23:26;100621.03;;;15.74;80.99
66887;BME280;67239;51.680;5.976;2023-07-02T03:25:54;100624.63;;;15.73;81.70
66887;BME280;67239;51.680;5.976;2023-07-02T03:28:21;100632.50;;;15.74;82.34
66887;BME280;67239;51.680;5.976;2023-07-02T03:30:48;100629.78;;;15.76;82.72
66887;BME280;67239;51.680;5.976;2023-07-02T03:33:15;100639.38;;;15.78;82.62
66887;BME280;67239;51.680;5.976;2023-07-02T03:35:42;100640.06;;;15.82;82.96
66887;BME280;67239;51.680;5.976;2023-07-02T03:38:09;100642.59;;;15.85;83.44
66887;BME280;67239;51.680;5.976;2023-07-02T03:40:36;100648.50;;;15.90;83.80
66887;BME280;67239;51.680;5.976;2023-07-02T03:43:04;100652.63;;;15.96;83.47
66887;BME280;67239;51.680;5.976;2023-07-02T03:45:32;100648.19;;;15.96;83.29
66887;BME280;67239;51.680;5.976;2023-07-02T03:47:59;100655.13;;;15.99;83.52
66887;BME280;67239;51.680;5.976;2023-07-02T03:50:26;100656.84;;;16.00;83.35
66887;BME280;67239;51.680;5.976;2023-07-02T03:52:53;100653.25;;;16.01;83.84
66887;BME280;67239;51.680;5.976;2023-07-02T03:55:20;100652.53;;;15.97;83.96
66887;BME280;67239;51.680;5.976;2023-07-02T03:57:47;100657.84;;;15.97;83.75
66887;BME280;67239;51.680;5.976;2023-07-02T04:00:14;100656.22;;;15.95;83.49
66887;BME280;67239;51.680;5.976;2023-07-02T04:02:41;100659.06;;;15.92;83.16
66887;BME280;67239;51.680;5.976;2023-07-02T04:05:09;100674.06;;;15.93;82.93
66887;BME280;67239;51.680;5.976;2023-07-02T04:07:36;100669.72;;;15.92;82.66
66887;BME280;67239;51.680;5.976;2023-07-02T04:10:03;100674.94;;;15.93;82.47
66887;BME280;67239;51.680;5.976;2023-07-02T04:12:31;100680.50;;;16.05;81.97
66887;BME280;67239;51.680;5.976;2023-07-02T04:14:58;100677.84;;;16.05;82.11
66887;BME280;67239;51.680;5.976;2023-07-02T04:17:25;100678.53;;;16.08;81.59
66887;BME280;67239;51.680;5.976;2023-07-02T04:19:54;100672.09;;;16.12;81.98
66887;BME280;67239;51.680;5.976;2023-07-02T04:22:22;100675.25;;;16.19;81.90
66887;BME280;67239;51.680;5.976;2023-07-02T04:24:49;100680.31;;;16.24;81.46
66887;BME280;67239;51.680;5.976;2023-07-02T04:27:18;100679.31;;;16.26;81.69
66887;BME280;67239;51.680;5.976;2023-07-02T04:30:06;100679.19;;;16.28;81.51
66887;BME280;67239;51.680;5.976;2023-07-02T04:32:35;100683.41;;;16.32;81.37
66887;BME280;67239;51.680;5.976;2023-07-02T04:35:03;100677.84;;;16.37;81.21
66887;BME280;67239;51.680;5.976;2023-07-02T04:37:30;100690.88;;;16.41;81.10
66887;BME280;67239;51.680;5.976;2023-07-02T04:39:57;100690.78;;;16.43;80.89
66887;BME280;67239;51.680;5.976;2023-07-02T04:42:25;100691.72;;;16.42;80.31
66887;BME280;67239;51.680;5.976;2023-07-02T04:44:58;100695.06;;;16.45;80.02
66887;BME280;67239;51.680;5.976;2023-07-02T04:47:29;100690.41;;;16.49;79.64
66887;BME280;67239;51.680;5.976;2023-07-02T04:49:57;100699.84;;;16.55;79.63
66887;BME280;67239;51.680;5.976;2023-07-02T04:52:24;100705.34;;;16.68;79.08
66887;BME280;67239;51.680;5.976;2023-07-02T04:54:51;100710.44;;;16.71;79.44
66887;BME280;67239;51.680;5.976;2023-07-02T04:57:18;100707.34;;;16.79;78.74
66887;BME280;67239;51.680;5.976;2023-07-02T04:59:45;100708.28;;;16.94;78.40
66887;BME280;67239;51.680;5.976;2023-07-02T05:02:13;100709.34;;;17.05;78.02
66887;BME280;67239;51.680;5.976;2023-07-02T05:04:40;100702.25;;;17.06;77.41
66887;BME280;67239;51.680;5.976;2023-07-02T05:07:07;100703.88;;;17.23;76.58
66887;BME280;67239;51.680;5.976;2023-07-02T05:09:34;100709.97;;;17.25;76.81
66887;BME280;67239;51.680;5.976;2023-07-02T05:12:01;100713.66;;;17.22;75.86
66887;BME280;67239;51.680;5.976;2023-07-02T05:14:28;100709.97;;;17.25;75.72
66887;BME280;67239;51.680;5.976;2023-07-02T05:16:55;100709.44;;;17.34;75.28
66887;BME280;67239;51.680;5.976;2023-07-02T05:19:22;100708.38;;;17.37;73.70
66887;BME280;67239;51.680;5.976;2023-07-02T05:21:49;100708.56;;;17.34;74.38
66887;BME280;67239;51.680;5.976;2023-07-02T05:24:16;100715.50;;;17.36;74.09
66887;BME280;67239;51.680;5.976;2023-07-02T05:26:43;100714.56;;;17.66;73.24
66887;BME280;67239;51.680;5.976;2023-07-02T05:29:10;100714.38;;;17.84;73.07
66887;BME280;67239;51.680;5.976;2023-07-02T05:31:37;100718.38;;;18.06;71.78
66887;BME280;67239;51.680;5.976;2023-07-02T05:34:04;100718.00;;;17.97;71.64
66887;BME280;67239;51.680;5.976;2023-07-02T05:36:31;100722.47;;;17.82;71.35
66887;BME280;67239;51.680;5.976;2023-07-02T05:38:58;100721.97;;;17.90;71.39
66887;BME280;67239;51.680;5.976;2023-07-02T05:41:25;100737.50;;;17.83;70.92
66887;BME280;67239;51.680;5.976;2023-07-02T05:43:57;100742.06;;;17.81;70.54
66887;BME280;67239;51.680;5.976;2023-07-02T05:46:25;100739.31;;;17.97;70.25
66887;BME280;67239;51.680;5.976;2023-07-02T05:48:52;100741.41;;;18.21;69.50
66887;BME280;67239;51.680;5.976;2023-07-02T05:51:24;100742.81;;;18.27;69.79
66887;BME280;67239;51.680;5.976;2023-07-02T05:53:51;100742.56;;;18.44;68.56
66887;BME280;67239;51.680;5.976;2023-07-02T05:56:19;100746.00;;;18.46;67.07
66887;BME280;67239;51.680;5.976;2023-07-02T05:58:46;100751.28;;;18.34;65.24
66887;BME280;67239;51.680;5.976;2023-07-02T06:01:14;100754.13;;;18.45;64.73
66887;BME280;67239;51.680;5.976;2023-07-02T06:03:42;100764.63;;;18.34;64.33
66887;BME280;67239;51.680;5.976;2023-07-02T06:06:11;100761.69;;;18.24;64.03
66887;BME280;67239;51.680;5.976;2023-07-02T06:08:38;100760.66;;;18.12;63.83
66887;BME280;67239;51.680;5.976;2023-07-02T06:11:05;100753.78;;;18.08;64.77
66887;BME280;67239;51.680;5.976;2023-07-02T06:13:32;100765.59;;;18.33;63.35
66887;BME280;67239;51.680;5.976;2023-07-02T06:16:00;100767.38;;;18.32;62.42
66887;BME280;67239;51.680;5.976;2023-07-02T06:18:27;100774.72;;;18.28;62.59
66887;BME280;67239;51.680;5.976;2023-07-02T06:20:54;100769.69;;;18.24;61.32
66887;BME280;67239;51.680;5.976;2023-07-02T06:23:21;100772.34;;;18.24;61.06
66887;BME280;67239;51.680;5.976;2023-07-02T06:25:48;100777.91;;;18.21;62.82
66887;BME280;67239;51.680;5.976;2023-07-02T06:28:18;100777.63;;;18.25;61.54
66887;BME280;67239;51.680;5.976;2023-07-02T06:30:45;100778.94;;;18.33;61.76
66887;BME280;67239;51.680;5.976;2023-07-02T06:33:13;100779.41;;;18.39;61.61
66887;BME280;67239;51.680;5.976;2023-07-02T06:35:40;100784.13;;;18.49;59.93
66887;BME280;67239;51.680;5.976;2023-07-02T06:38:07;100798.19;;;18.65;59.46
66887;BME280;67239;51.680;5.976;2023-07-02T06:40:34;100787.47;;;18.80;57.87
66887;BME280;67239;51.680;5.976;2023-07-02T06:43:01;100783.31;;;18.88;59.07
66887;BME280;67239;51.680;5.976;2023-07-02T06:45:28;100785.97;;;19.03;57.08
66887;BME280;67239;51.680;5.976;2023-07-02T06:47:55;100789.06;;;18.97;57.21
66887;BME280;67239;51.680;5.976;2023-07-02T06:50:22;100785.72;;;18.93;57.88
66887;BME280;67239;51.680;5.976;2023-07-02T06:52:49;100794.59;;;18.93;58.14
66887;BME280;67239;51.680;5.976;2023-07-02T06:55:16;100801.53;;;18.96;58.08
66887;BME280;67239;51.680;5.976;2023-07-02T06:57:45;100807.22;;;19.04;55.79
66887;BME280;67239;51.680;5.976;2023-07-02T07:00:13;100803.84;;;19.02;55.32
66887;BME280;67239;51.680;5.976;2023-07-02T07:02:41;100798.56;;;19.01;55.88
66887;BME280;67239;51.680;5.976;2023-07-02T07:05:08;100806.50;;;19.02;56.25
66887;BME280;67239;51.680;5.976;2023-07-02T07:07:36;100810.34;;;19.11;56.54
66887;BME280;67239;51.680;5.976;2023-07-02T07:10:04;100817.56;;;19.23;55.14
66887;BME280;67239;51.680;5.976;2023-07-02T07:12:31;100818.00;;;19.30;55.47
66887;BME280;67239;51.680;5.976;2023-07-02T07:14:59;100830.84;;;19.38;54.59
66887;BME280;67239;51.680;5.976;2023-07-02T07:17:26;100813.09;;;19.37;53.69
66887;BME280;67239;51.680;5.976;2023-07-02T07:19:53;100826.03;;;19.30;52.74
66887;BME280;67239;51.680;5.976;2023-07-02T07:22:20;100831.25;;;19.32;53.95
66887;BME280;67239;51.680;5.976;2023-07-02T07:24:47;100829.88;;;19.39;54.63
66887;BME280;67239;51.680;5.976;2023-07-02T07:27:14;100832.78;;;19.49;54.48
66887;BME280;67239;51.680;5.976;2023-07-02T07:29:41;100835.13;;;19.53;49.94
66887;BME280;67239;51.680;5.976;2023-07-02T07:32:08;100840.16;;;19.45;50.85
66887;BME280;67239;51.680;5.976;2023-07-02T07:34:35;100837.50;;;19.45;51.36
66887;BME280;67239;51.680;5.976;2023-07-02T07:37:03;100841.75;;;19.48;51.12
66887;BME280;67239;51.680;5.976;2023-07-02T07:39:30;100839.53;;;19.54;51.05
66887;BME280;67239;51.680;5.976;2023-07-02T07:41:57;100853.03;;;19.66;51.29
66887;BME280;67239;51.680;5.976;2023-07-02T07:44:24;100849.91;;;19.72;51.28
66887;BME280;67239;51.680;5.976;2023-07-02T07:46:55;100847.81;;;19.77;51.14
66887;BME280;67239;51.680;5.976;2023-07-02T07:49:23;100842.13;;;19.82;51.32
66887;BME280;67239;51.680;5.976;2023-07-02T07:51:50;100844.50;;;19.86;51.82
66887;BME280;67239;51.680;5.976;2023-07-02T07:54:17;100840.44;;;19.94;52.13
66887;BME280;67239;51.680;5.976;2023-07-02T07:56:44;100851.78;;;19.97;51.33
66887;BME280;67239;51.680;5.976;2023-07-02T07:59:11;100845.59;;;19.97;51.87
66887;BME280;67239;51.680;5.976;2023-07-02T08:01:40;100848.56;;;20.05;52.05
66887;BME280;67239;51.680;5.976;2023-07-02T08:04:07;100848.44;;;20.07;51.12
66887;BME280;67239;51.680;5.976;2023-07-02T08:06:34;100842.13;;;20.08;50.50
66887;BME280;67239;51.680;5.976;2023-07-02T08:09:01;100847.06;;;20.14;49.57
66887;BME280;67239;51.680;5.976;2023-07-02T08:11:29;100850.59;;;20.14;49.46
66887;BME280;67239;51.680;5.976;2023-07-02T08:13:57;100858.75;;;20.13;50.12
66887;BME280;67239;51.680;5.976;2023-07-02T08:16:24;100848.88;;;20.13;50.53
66887;BME280;67239;51.680;5.976;2023-07-02T08:18:52;100865.81;;;20.14;49.31
66887;BME280;67239;51.680;5.976;2023-07-02T08:21:19;100854.66;;;20.20;50.72
66887;BME280;67239;51.680;5.976;2023-07-02T08:23:46;100860.88;;;20.33;50.29
66887;BME280;67239;51.680;5.976;2023-07-02T08:26:13;100860.06;;;20.44;50.74
66887;BME280;67239;51.680;5.976;2023-07-02T08:28:41;100864.91;;;20.52;49.99
66887;BME280;67239;51.680;5.976;2023-07-02T08:31:08;100866.47;;;20.55;49.91
66887;BME280;67239;51.680;5.976;2023-07-02T08:33:35;100887.44;;;20.61;48.16
66887;BME280;67239;51.680;5.976;2023-07-02T08:36:02;100876.44;;;20.53;47.98
66887;BME280;67239;51.680;5.976;2023-07-02T08:38:29;100889.75;;;20.41;45.94
66887;BME280;67239;51.680;5.976;2023-07-02T08:40:56;100892.13;;;20.20;45.52
66887;BME280;67239;51.680;5.976;2023-07-02T08:43:25;100887.44;;;20.11;44.34
66887;BME280;67239;51.680;5.976;2023-07-02T08:45:54;100892.91;;;20.09;43.55
66887;BME280;67239;51.680;5.976;2023-07-02T08:48:21;100888.06;;;20.01;43.99
66887;BME280;67239;51.680;5.976;2023-07-02T08:50:51;100894.75;;;19.81;45.26
66887;BME280;67239;51.680;5.976;2023-07-02T08:53:19;100890.59;;;19.77;46.71
66887;BME280;67239;51.680;5.976;2023-07-02T08:55:46;100886.34;;;20.00;47.31
66887;BME280;67239;51.680;5.976;2023-07-02T08:58:14;100890.81;;;20.39;44.74
66887;BME280;67239;51.680;5.976;2023-07-02T09:03:36;100897.22;;;20.49;44.29
66887;BME280;67239;51.680;5.976;2023-07-02T09:06:09;100884.72;;;20.50;44.78
66887;BME280;67239;51.680;5.976;2023-07-02T09:08:38;100894.25;;;20.41;44.96
66887;BME280;67239;51.680;5.976;2023-07-02T09:11:09;100897.91;;;20.27;46.06
66887;BME280;67239;51.680;5.976;2023-07-02T09:13:44;100892.91;;;20.09;46.59
66887;BME280;67239;51.680;5.976;2023-07-02T09:16:23;100891.28;;;19.94;46.62
66887;BME280;67239;51.680;5.976;2023-07-02T09:19:05;100907.00;;;19.85;47.49
66887;BME280;67239;51.680;5.976;2023-07-02T09:21:45;100911.88;;;19.79;46.19
66887;BME280;67239;51.680;5.976;2023-07-02T09:24:22;100906.09;;;19.85;46.16
66887;BME280;67239;51.680;5.976;2023-07-02T09:26:51;100922.94;;;19.87;44.08
66887;BME280;67239;51.680;5.976;2023-07-02T09:29:22;100910.00;;;19.94;44.95
66887;BME280;67239;51.680;5.976;2023-07-02T09:31:51;100904.75;;;20.05;44.09
66887;BME280;67239;51.680;5.976;2023-07-02T09:34:38;100907.00;;;20.11;44.94
66887;BME280;67239;51.680;5.976;2023-07-02T09:37:09;100909.59;;;20.13;45.17
66887;BME280;67239;51.680;5.976;2023-07-02T09:39:36;100903.38;;;19.99;45.49
66887;BME280;67239;51.680;5.976;2023-07-02T09:42:06;100904.22;;;20.00;46.10
66887;BME280;67239;51.680;5.976;2023-07-02T09:44:35;100910.22;;;20.16;46.61
66887;BME280;67239;51.680;5.976;2023-07-02T09:47:07;100908.06;;;20.47;46.48
66887;BME280;67239;51.680;5.976;2023-07-02T09:49:37;100906.00;;;20.64;44.62
66887;BME280;67239;51.680;5.976;2023-07-02T09:52:08;100908.34;;;20.69;44.12
66887;BME280;67239;51.680;5.976;2023-07-02T09:54:41;100898.91;;;20.76;42.32
66887;BME280;67239;51.680;5.976;2023-07-02T09:57:08;100888.19;;;20.63;42.64
66887;BME280;67239;51.680;5.976;2023-07-02T09:59:38;100886.69;;;20.85;43.06
66887;BME280;67239;51.680;5.976;2023-07-02T10:02:08;100898.50;;;21.06;41.94
66887;BME280;67239;51.680;5.976;2023-07-02T10:04:46;100886.69;;;21.33;41.27
66887;BME280;67239;51.680;5.976;2023-07-02T10:07:26;100896.00;;;21.65;40.43
66887;BME280;67239;51.680;5.976;2023-07-02T10:09:55;100888.06;;;21.75;41.02
66887;BME280;67239;51.680;5.976;2023-07-02T10:12:26;100893.44;;;21.75;41.84
66887;BME280;67239;51.680;5.976;2023-07-02T10:14:59;100903.97;;;21.89;41.71
66887;BME280;67239;51.680;5.976;2023-07-02T10:20:08;100901.72;;;22.53;39.18
66887;BME280;67239;51.680;5.976;2023-07-02T10:22:48;100904.41;;;22.64;40.16
66887;BME280;67239;51.680;5.976;2023-07-02T10:25:28;100910.50;;;22.89;39.42
66887;BME280;67239;51.680;5.976;2023-07-02T10:27:57;100908.44;;;22.70;39.26
66887;BME280;67239;51.680;5.976;2023-07-02T10:30:38;100916.34;;;22.83;39.31
66887;BME280;67239;51.680;5.976;2023-07-02T10:33:07;100911.31;;;23.01;39.80
66887;BME280;67239;51.680;5.976;2023-07-02T10:35:36;100914.25;;;22.98;39.54
66887;BME280;67239;51.680;5.976;2023-07-02T10:38:05;100907.88;;;23.10;39.99
66887;BME280;67239;51.680;5.976;2023-07-02T10:40:33;100912.19;;;22.90;40.42
66887;BME280;67239;51.680;5.976;2023-07-02T10:43:01;100927.44;;;23.01;39.28
66887;BME280;67239;51.680;5.976;2023-07-02T10:45:32;100922.16;;;23.10;39.77
66887;BME280;67239;51.680;5.976;2023-07-02T10:48:08;100913.00;;;23.24;40.05
66887;BME280;67239;51.680;5.976;2023-07-02T10:50:36;100924.69;;;23.35;39.38
66887;BME280;67239;51.680;5.976;2023-07-02T10:53:03;100932.28;;;23.30;38.94
66887;BME280;67239;51.680;5.976;2023-07-02T10:55:30;100917.25;;;23.27;39.42
66887;BME280;67239;51.680;5.976;2023-07-02T10:58:08;100922.81;;;23.03;39.20
66887;BME280;67239;51.680;5.976;2023-07-02T11:00:50;100925.28;;;22.83;39.33
66887;BME280;67239;51.680;5.976;2023-07-02T11:03:19;100916.25;;;22.73;40.62
66887;BME280;67239;51.680;5.976;2023-07-02T11:05:49;100919.78;;;22.73;40.21
66887;BME280;67239;51.680;5.976;2023-07-02T11:08:18;100928.91;;;22.37;39.24
66887;BME280;67239;51.680;5.976;2023-07-02T11:10:48;100927.91;;;22.03;40.66
66887;BME280;67239;51.680;5.976;2023-07-02T11:13:19;100932.97;;;21.84;41.17
66887;BME280;67239;51.680;5.976;2023-07-02T11:15:47;100928.22;;;21.76;40.83
66887;BME280;67239;51.680;5.976;2023-07-02T11:18:16;100929.22;;;21.86;41.39
66887;BME280;67239;51.680;5.976;2023-07-02T11:20:46;100945.25;;;22.11;41.41
66887;BME280;67239;51.680;5.976;2023-07-02T11:23:18;100933.06;;;22.29;41.00
66887;BME280;67239;51.680;5.976;2023-07-02T11:26:15;100927.47;;;22.44;40.53
66887;BME280;67239;51.680;5.976;2023-07-02T11:28:49;100938.09;;;22.79;39.82
66887;BME280;67239;51.680;5.976;2023-07-02T11:31:26;100937.03;;;22.71;40.10
66887;BME280;67239;51.680;5.976;2023-07-02T11:33:56;100932.75;;;22.68;41.08
66887;BME280;67239;51.680;5.976;2023-07-02T11:36:23;100934.19;;;22.84;41.08
66887;BME280;67239;51.680;5.976;2023-07-02T11:38:51;100942.22;;;23.06;40.83
66887;BME280;67239;51.680;5.976;2023-07-02T11:41:19;100934.41;;;23.03;40.52
66887;BME280;67239;51.680;5.976;2023-07-02T11:43:48;100936.38;;;22.90;40.68
66887;BME280;67239;51.680;5.976;2023-07-02T11:46:15;100932.13;;;22.64;40.59
66887;BME280;67239;51.680;5.976;2023-07-02T11:48:42;100934.66;;;22.32;41.19
66887;BME280;67239;51.680;5.976;2023-07-02T11:51:09;100942.63;;;21.98;42.27
66887;BME280;67239;51.680;5.976;2023-07-02T11:53:36;100944.94;;;21.80;42.64
66887;BME280;67239;51.680;5.976;2023-07-02T11:56:03;100953.78;;;21.69;43.13
66887;BME280;67239;51.680;5.976;2023-07-02T11:58:31;100948.06;;;21.49;43.15
66887;BME280;67239;51.680;5.976;2023-07-02T12:00:58;100940.09;;;21.36;43.18
66887;BME280;67239;51.680;5.976;2023-07-02T12:03:25;100944.41;;;21.26;42.82
66887;BME280;67239;51.680;5.976;2023-07-02T12:05:52;100938.41;;;20.98;43.98
66887;BME280;67239;51.680;5.976;2023-07-02T12:08:19;100943.69;;;20.87;44.52
66887;BME280;67239;51.680;5.976;2023-07-02T12:10:46;100941.59;;;21.03;44.01
66887;BME280;67239;51.680;5.976;2023-07-02T12:13:13;100938.84;;;21.29;44.19
66887;BME280;67239;51.680;5.976;2023-07-02T12:15:40;100943.41;;;21.64;44.32
66887;BME280;67239;51.680;5.976;2023-07-02T12:18:08;100933.41;;;22.02;43.87
66887;BME280;67239;51.680;5.976;2023-07-02T12:20:36;100944.16;;;22.13;41.80
66887;BME280;67239;51.680;5.976;2023-07-02T12:23:08;100940.38;;;22.16;41.47
66887;BME280;67239;51.680;5.976;2023-07-02T12:25:39;100945.88;;;22.14;40.93
66887;BME280;67239;51.680;5.976;2023-07-02T12:28:06;100939.91;;;22.22;40.75
66887;BME280;67239;51.680;5.976;2023-07-02T12:30:33;100930.16;;;22.44;40.00
66887;BME280;67239;51.680;5.976;2023-07-02T12:33:01;100940.03;;;22.32;39.83
66887;BME280;67239;51.680;5.976;2023-07-02T12:35:28;100942.09;;;22.28;39.70
66887;BME280;67239;51.680;5.976;2023-07-02T12:37:55;100938.28;;;22.19;39.54
66887;BME280;67239;51.680;5.976;2023-07-02T12:40:22;100947.56;;;22.04;40.17
66887;BME280;67239;51.680;5.976;2023-07-02T12:42:50;100955.94;;;21.88;41.41
66887;BME280;67239;51.680;5.976;2023-07-02T12:45:17;100946.72;;;22.26;41.67
66887;BME280;67239;51.680;5.976;2023-07-02T12:47:48;100938.50;;;22.52;41.56
66887;BME280;67239;51.680;5.976;2023-07-02T12:50:15;100925.75;;;22.77;40.38
66887;BME280;67239;51.680;5.976;2023-07-02T12:52:42;100938.66;;;23.06;39.25
66887;BME280;67239;51.680;5.976;2023-07-02T12:55:09;100946.94;;;23.25;38.58
66887;BME280;67239;51.680;5.976;2023-07-02T12:57:36;100934.94;;;23.41;38.25
66887;BME280;67239;51.680;5.976;2023-07-02T13:00:06;100922.22;;;23.64;38.22
66887;BME280;67239;51.680;5.976;2023-07-02T13:02:35;100935.53;;;23.98;36.44